sensor_id;sensor_type;location;lat;lon;timestamp;temperature;humidity
12307;DHT22;6216;51.146;7.008;2022-10-04T00:01:09;13.40;99.90
12307;DHT22;6216;51.146;7.008;2022-10-04T00:03:41;13.30;99.90
12307;DHT22;6216;51.146;7.008;2022-10-04T00:06:15;13.30;99.90
12307;DHT22;6216;51.146;7.008;2022-10-04T00:08:46;13.30;99.90
12307;DHT22;6216;51.146;7.008;2022-10-04T00:11:19;13.30;99.90
12307;DHT22;6216;51.146;7.008;2022-10-04T00:13:56;13.30;99.90
12307;DHT22;6216;51.146;7.008;2022-10-04T00:16:28;13.40;99.90
12307;DHT22;6216;51.146;7.008;2022-10-04T00:19:24;13.30;99.90
12307;DHT22;6216;51.146;7.008;2022-10-04T00:22:17;13.30;99.90
12307;DHT22;6216;51.146;7.008;2022-10-04T00:31:16;13.30;99.90
12307;DHT22;6216;51.146;7.008;2022-10-04T00:33:46;13.30;99.90
12307;DHT22;6216;51.146;7.008;2022-10-04T00:39:40;13.30;99.90
12307;DHT22;6216;51.146;7.008;2022-10-04T00:42:28;13.30;99.90
12307;DHT22;6216;51.146;7.008;2022-10-04T00:45:01;13.40;99.90
12307;DHT22;6216;51.146;7.008;2022-10-04T00:47:36;13.40;99.90
12307;DHT22;6216;51.146;7.008;2022-10-04T00:50:12;13.40;99.90
12307;DHT22;6216;51.146;7.008;2022-10-04T00:52:45;13.40;99.90
12307;DHT22;6216;51.146;7.008;2022-10-04T00:55:21;13.30;99.90
12307;DHT22;6216;51.146;7.008;2022-10-04T00:57:53;13.30;99.90
12307;DHT22;6216;51.146;7.008;2022-10-04T01:00:25;13.30;99.90
12307;DHT22;6216;51.146;7.008;2022-10-04T01:02:58;13.30;99.90
12307;DHT22;6216;51.146;7.008;2022-10-04T01:05:30;13.30;99.90
12307;DHT22;6216;51.146;7.008;2022-10-04T01:08:05;13.30;99.90
12307;DHT22;6216;51.146;7.008;2022-10-04T01:10:39;13.30;99.90
12307;DHT22;6216;51.146;7.008;2022-10-04T01:13:12;13.40;99.90
12307;DHT22;6216;51.146;7.008;2022-10-04T01:15:44;13.40;99.90
12307;DHT22;6216;51.146;7.008;2022-10-04T01:18:27;13.40;99.90
12307;DHT22;6216;51.146;7.008;2022-10-04T01:20:58;13.40;99.90
12307;DHT22;6216;51.146;7.008;2022-10-04T01:23:40;13.40;99.90
12307;DHT22;6216;51.146;7.008;2022-10-04T01:26:39;13.30;99.90
12307;DHT22;6216;51.146;7.008;2022-10-04T01:29:12;13.30;99.90
12307;DHT22;6216;51.146;7.008;2022-10-04T01:31:43;13.30;99.90
12307;DHT22;6216;51.146;7.008;2022-10-04T01:34:13;13.30;99.90
12307;DHT22;6216;51.146;7.008;2022-10-04T01:36:42;13.30;99.90
12307;DHT22;6216;51.146;7.008;2022-10-04T01:39:15;13.30;99.90
12307;DHT22;6216;51.146;7.008;2022-10-04T01:41:47;13.30;99.90
12307;DHT22;6216;51.146;7.008;2022-10-04T01:44:27;13.30;99.90
12307;DHT22;6216;51.146;7.008;2022-10-04T01:47:00;13.30;99.90
12307;DHT22;6216;51.146;7.008;2022-10-04T01:49:40;13.30;99.90
12307;DHT22;6216;51.146;7.008;2022-10-04T01:52:13;13.30;99.90
12307;DHT22;6216;51.146;7.008;2022-10-04T01:54:47;13.20;99.90
12307;DHT22;6216;51.146;7.008;2022-10-04T01:57:19;13.20;99.90
12307;DHT22;6216;51.146;7.008;2022-10-04T01:59:51;13.20;99.90
12307;DHT22;6216;51.146;7.008;2022-10-04T02:02:25;13.20;99.90
12307;DHT22;6216;51.146;7.008;2022-10-04T02:04:56;13.20;99.90
12307;DHT22;6216;51.146;7.008;2022-10-04T02:07:28;13.20;99.90
12307;DHT22;6216;51.146;7.008;2022-10-04T02:10:02;13.10;99.90
12307;DHT22;6216;51.146;7.008;2022-10-04T02:12:33;13.00;99.90
12307;DHT22;6216;51.146;7.008;2022-10-04T02:15:05;13.00;99.90
12307;DHT22;6216;51.146;7.008;2022-10-04T02:17:39;12.90;99.90
12307;DHT22;6216;51.146;7.008;2022-10-04T02:20:12;12.90;99.90
12307;DHT22;6216;51.146;7.008;2022-10-04T02:22:41;12.90;99.90
12307;DHT22;6216;51.146;7.008;2022-10-04T02:25:15;12.90;99.90
12307;DHT22;6216;51.146;7.008;2022-10-04T02:27:45;12.90;99.90
12307;DHT22;6216;51.146;7.008;2022-10-04T02:30:13;12.80;99.90
12307;DHT22;6216;51.146;7.008;2022-10-04T02:32:42;12.90;99.90
12307;DHT22;6216;51.146;7.008;2022-10-04T02:35:28;12.80;99.90
12307;DHT22;6216;51.146;7.008;2022-10-04T02:38:06;12.80;99.90
12307;DHT22;6216;51.146;7.008;2022-10-04T02:40:41;12.80;99.90
12307;DHT22;6216;51.146;7.008;2022-10-04T02:43:15;12.80;99.90
12307;DHT22;6216;51.146;7.008;2022-10-04T02:45:47;12.80;99.90
12307;DHT22;6216;51.146;7.008;2022-10-04T02:48:28;12.80;99.90
12307;DHT22;6216;51.146;7.008;2022-10-04T02:51:05;12.80;99.90
12307;DHT22;6216;51.146;7.008;2022-10-04T02:53:47;12.80;99.90
12307;DHT22;6216;51.146;7.008;2022-10-04T02:56:18;12.80;99.90
12307;DHT22;6216;51.146;7.008;2022-10-04T02:58:48;12.80;99.90
12307;DHT22;6216;51.146;7.008;2022-10-04T03:01:23;12.70;99.90
12307;DHT22;6216;51.146;7.008;2022-10-04T03:03:54;12.70;99.90
12307;DHT22;6216;51.146;7.008;2022-10-04T03:06:24;12.70;99.90
12307;DHT22;6216;51.146;7.008;2022-10-04T03:08:57;12.60;99.90
12307;DHT22;6216;51.146;7.008;2022-10-04T03:11:30;12.40;99.90
12307;DHT22;6216;51.146;7.008;2022-10-04T03:14:03;12.50;99.90
12307;DHT22;6216;51.146;7.008;2022-10-04T03:16:34;12.40;99.90
12307;DHT22;6216;51.146;7.008;2022-10-04T03:19:03;12.30;99.90
12307;DHT22;6216;51.146;7.008;2022-10-04T03:21:32;12.30;99.90
12307;DHT22;6216;51.146;7.008;2022-10-04T03:24:01;12.20;99.90
12307;DHT22;6216;51.146;7.008;2022-10-04T03:26:37;12.20;99.90
12307;DHT22;6216;51.146;7.008;2022-10-04T03:29:07;12.20;99.90
12307;DHT22;6216;51.146;7.008;2022-10-04T03:31:40;12.20;99.90
12307;DHT22;6216;51.146;7.008;2022-10-04T03:34:13;12.20;99.90
12307;DHT22;6216;51.146;7.008;2022-10-04T03:36:43;12.30;99.90
12307;DHT22;6216;51.146;7.008;2022-10-04T03:39:17;12.30;99.90
12307;DHT22;6216;51.146;7.008;2022-10-04T03:41:49;12.30;99.90
12307;DHT22;6216;51.146;7.008;2022-10-04T03:44:18;12.40;99.90
12307;DHT22;6216;51.146;7.008;2022-10-04T03:46:46;12.40;99.90
12307;DHT22;6216;51.146;7.008;2022-10-04T03:49:17;12.40;99.90
12307;DHT22;6216;51.146;7.008;2022-10-04T03:51:50;12.50;99.90
12307;DHT22;6216;51.146;7.008;2022-10-04T03:54:22;12.40;99.90
12307;DHT22;6216;51.146;7.008;2022-10-04T03:56:55;12.40;99.90
12307;DHT22;6216;51.146;7.008;2022-10-04T03:59:25;12.40;99.90
12307;DHT22;6216;51.146;7.008;2022-10-04T04:02:02;12.40;99.90
12307;DHT22;6216;51.146;7.008;2022-10-04T04:04:39;12.40;99.90
12307;DHT22;6216;51.146;7.008;2022-10-04T04:07:13;12.50;99.90
12307;DHT22;6216;51.146;7.008;2022-10-04T04:09:48;12.60;99.90
12307;DHT22;6216;51.146;7.008;2022-10-04T04:12:20;12.60;99.90
12307;DHT22;6216;51.146;7.008;2022-10-04T04:14:51;12.50;99.90
12307;DHT22;6216;51.146;7.008;2022-10-04T04:17:34;12.60;99.90
12307;DHT22;6216;51.146;7.008;2022-10-04T04:20:06;12.60;99.90
12307;DHT22;6216;51.146;7.008;2022-10-04T04:22:41;12.60;99.90
12307;DHT22;6216;51.146;7.008;2022-10-04T04:25:13;12.60;99.90
12307;DHT22;6216;51.146;7.008;2022-10-04T04:27:45;12.60;99.90
12307;DHT22;6216;51.146;7.008;2022-10-04T04:30:16;12.60;99.90
12307;DHT22;6216;51.146;7.008;2022-10-04T04:32:48;12.50;99.90
12307;DHT22;6216;51.146;7.008;2022-10-04T04:35:23;12.60;99.90
12307;DHT22;6216;51.146;7.008;2022-10-04T04:38:13;12.50;99.90
12307;DHT22;6216;51.146;7.008;2022-10-04T04:40:41;12.50;99.90
12307;DHT22;6216;51.146;7.008;2022-10-04T04:43:16;12.50;99.90
12307;DHT22;6216;51.146;7.008;2022-10-04T04:45:46;12.50;99.90
12307;DHT22;6216;51.146;7.008;2022-10-04T04:48:35;12.50;99.90
12307;DHT22;6216;51.146;7.008;2022-10-04T04:51:04;12.50;99.90
12307;DHT22;6216;51.146;7.008;2022-10-04T04:53:32;12.50;99.90
12307;DHT22;6216;51.146;7.008;2022-10-04T04:56:02;12.50;99.90
12307;DHT22;6216;51.146;7.008;2022-10-04T04:58:34;12.40;99.90
12307;DHT22;6216;51.146;7.008;2022-10-04T05:01:05;12.40;99.90
12307;DHT22;6216;51.146;7.008;2022-10-04T05:03:34;12.40;99.90
12307;DHT22;6216;51.146;7.008;2022-10-04T05:06:02;12.30;99.90
12307;DHT22;6216;51.146;7.008;2022-10-04T05:08:32;12.20;99.90
12307;DHT22;6216;51.146;7.008;2022-10-04T05:11:12;12.20;99.90
12307;DHT22;6216;51.146;7.008;2022-10-04T05:13:45;12.10;99.90
12307;DHT22;6216;51.146;7.008;2022-10-04T05:16:20;12.00;99.90
12307;DHT22;6216;51.146;7.008;2022-10-04T05:18:57;11.90;99.90
12307;DHT22;6216;51.146;7.008;2022-10-04T05:21:33;11.90;99.90
12307;DHT22;6216;51.146;7.008;2022-10-04T05:24:09;11.80;99.90
12307;DHT22;6216;51.146;7.008;2022-10-04T05:26:40;11.80;99.90
12307;DHT22;6216;51.146;7.008;2022-10-04T05:29:14;11.70;99.90
12307;DHT22;6216;51.146;7.008;2022-10-04T05:31:48;11.70;99.90
12307;DHT22;6216;51.146;7.008;2022-10-04T05:34:30;11.60;99.90
12307;DHT22;6216;51.146;7.008;2022-10-04T05:37:11;11.60;99.90
12307;DHT22;6216;51.146;7.008;2022-10-04T05:40:02;11.60;99.90
12307;DHT22;6216;51.146;7.008;2022-10-04T05:42:36;11.60;99.90
12307;DHT22;6216;51.146;7.008;2022-10-04T05:45:17;11.60;99.90
12307;DHT22;6216;51.146;7.008;2022-10-04T05:47:50;11.60;99.90
12307;DHT22;6216;51.146;7.008;2022-10-04T05:50:24;11.60;99.90
12307;DHT22;6216;51.146;7.008;2022-10-04T05:53:18;11.60;99.90
12307;DHT22;6216;51.146;7.008;2022-10-04T05:55:58;11.60;99.90
12307;DHT22;6216;51.146;7.008;2022-10-04T05:58:44;11.70;99.90
12307;DHT22;6216;51.146;7.008;2022-10-04T06:01:24;11.70;99.90
12307;DHT22;6216;51.146;7.008;2022-10-04T06:04:15;11.60;99.90
12307;DHT22;6216;51.146;7.008;2022-10-04T06:06:52;11.60;99.90
12307;DHT22;6216;51.146;7.008;2022-10-04T06:09:45;11.60;99.90
12307;DHT22;6216;51.146;7.008;2022-10-04T06:12:20;11.70;99.90
12307;DHT22;6216;51.146;7.008;2022-10-04T06:15:14;11.70;99.90
12307;DHT22;6216;51.146;7.008;2022-10-04T06:18:29;11.70;99.90
12307;DHT22;6216;51.146;7.008;2022-10-04T06:21:18;11.80;99.90
12307;DHT22;6216;51.146;7.008;2022-10-04T06:23:52;11.80;99.90
12307;DHT22;6216;51.146;7.008;2022-10-04T06:26:24;11.80;99.90
12307;DHT22;6216;51.146;7.008;2022-10-04T06:28:55;11.90;99.90
12307;DHT22;6216;51.146;7.008;2022-10-04T06:34:49;12.00;99.90
12307;DHT22;6216;51.146;7.008;2022-10-04T06:37:37;12.10;99.90
12307;DHT22;6216;51.146;7.008;2022-10-04T06:43:41;12.10;99.90
12307;DHT22;6216;51.146;7.008;2022-10-04T06:46:16;12.10;99.90
12307;DHT22;6216;51.146;7.008;2022-10-04T06:49:10;12.10;99.90
12307;DHT22;6216;51.146;7.008;2022-10-04T06:51:55;12.20;99.90
12307;DHT22;6216;51.146;7.008;2022-10-04T06:54:41;12.20;99.90
12307;DHT22;6216;51.146;7.008;2022-10-04T06:57:27;12.20;99.90
12307;DHT22;6216;51.146;7.008;2022-10-04T07:00:07;12.20;99.90
12307;DHT22;6216;51.146;7.008;2022-10-04T07:02:41;12.20;99.90
12307;DHT22;6216;51.146;7.008;2022-10-04T07:05:22;12.30;99.90
12307;DHT22;6216;51.146;7.008;2022-10-04T07:08:05;12.30;99.90
12307;DHT22;6216;51.146;7.008;2022-10-04T07:10:45;12.30;99.90
12307;DHT22;6216;51.146;7.008;2022-10-04T07:13:30;12.30;99.90
12307;DHT22;6216;51.146;7.008;2022-10-04T07:16:04;12.40;99.90
12307;DHT22;6216;51.146;7.008;2022-10-04T07:18:41;12.40;99.90
12307;DHT22;6216;51.146;7.008;2022-10-04T07:21:12;12.50;99.90
12307;DHT22;6216;51.146;7.008;2022-10-04T07:23:48;12.60;99.90
12307;DHT22;6216;51.146;7.008;2022-10-04T07:26:26;12.60;99.90
12307;DHT22;6216;51.146;7.008;2022-10-04T07:28:56;12.70;99.90
12307;DHT22;6216;51.146;7.008;2022-10-04T07:31:45;12.70;99.90
12307;DHT22;6216;51.146;7.008;2022-10-04T07:34:17;12.80;99.90
12307;DHT22;6216;51.146;7.008;2022-10-04T07:36:49;12.90;99.90
12307;DHT22;6216;51.146;7.008;2022-10-04T07:39:23;13.00;99.90
12307;DHT22;6216;51.146;7.008;2022-10-04T07:41:54;12.90;99.90
12307;DHT22;6216;51.146;7.008;2022-10-04T07:44:32;13.10;99.90
12307;DHT22;6216;51.146;7.008;2022-10-04T07:47:04;13.10;99.90
12307;DHT22;6216;51.146;7.008;2022-10-04T07:49:37;13.20;99.90
12307;DHT22;6216;51.146;7.008;2022-10-04T07:52:24;13.20;99.90
12307;DHT22;6216;51.146;7.008;2022-10-04T07:55:07;13.30;99.90
12307;DHT22;6216;51.146;7.008;2022-10-04T07:57:46;13.20;99.90
12307;DHT22;6216;51.146;7.008;2022-10-04T08:00:19;13.30;99.90
12307;DHT22;6216;51.146;7.008;2022-10-04T08:03:02;13.30;99.90
12307;DHT22;6216;51.146;7.008;2022-10-04T08:05:38;13.40;99.90
12307;DHT22;6216;51.146;7.008;2022-10-04T08:08:30;13.40;99.90
12307;DHT22;6216;51.146;7.008;2022-10-04T08:11:23;13.50;99.90
12307;DHT22;6216;51.146;7.008;2022-10-04T08:14:00;13.50;99.90
12307;DHT22;6216;51.146;7.008;2022-10-04T08:16:36;13.60;99.90
12307;DHT22;6216;51.146;7.008;2022-10-04T08:19:23;13.70;99.90
12307;DHT22;6216;51.146;7.008;2022-10-04T08:21:59;13.70;99.90
12307;DHT22;6216;51.146;7.008;2022-10-04T08:24:33;13.80;99.90
12307;DHT22;6216;51.146;7.008;2022-10-04T08:27:22;13.70;99.90
12307;DHT22;6216;51.146;7.008;2022-10-04T08:30:04;13.80;99.90
12307;DHT22;6216;51.146;7.008;2022-10-04T08:32:50;13.90;99.90
12307;DHT22;6216;51.146;7.008;2022-10-04T08:35:31;13.90;99.90
12307;DHT22;6216;51.146;7.008;2022-10-04T08:41:20;13.90;99.90
12307;DHT22;6216;51.146;7.008;2022-10-04T08:47:23;13.80;99.90
12307;DHT22;6216;51.146;7.008;2022-10-04T08:50:28;13.90;99.90
12307;DHT22;6216;51.146;7.008;2022-10-04T08:56:10;14.30;99.90
12307;DHT22;6216;51.146;7.008;2022-10-04T09:02:13;14.30;99.90
12307;DHT22;6216;51.146;7.008;2022-10-04T09:05:12;14.50;99.90
12307;DHT22;6216;51.146;7.008;2022-10-04T09:08:21;14.80;99.90
12307;DHT22;6216;51.146;7.008;2022-10-04T09:11:05;15.10;99.90
12307;DHT22;6216;51.146;7.008;2022-10-04T09:13:44;15.30;99.90
12307;DHT22;6216;51.146;7.008;2022-10-04T09:16:15;15.50;99.90
12307;DHT22;6216;51.146;7.008;2022-10-04T09:19:18;15.50;99.90
12307;DHT22;6216;51.146;7.008;2022-10-04T09:22:08;15.20;99.90
12307;DHT22;6216;51.146;7.008;2022-10-04T09:25:12;15.10;99.90
12307;DHT22;6216;51.146;7.008;2022-10-04T09:28:08;15.10;99.90
12307;DHT22;6216;51.146;7.008;2022-10-04T09:30:51;15.20;99.90
12307;DHT22;6216;51.146;7.008;2022-10-04T09:33:55;15.50;99.90
12307;DHT22;6216;51.146;7.008;2022-10-04T09:42:55;16.10;99.90
12307;DHT22;6216;51.146;7.008;2022-10-04T09:45:41;16.30;99.90
12307;DHT22;6216;51.146;7.008;2022-10-04T09:48:26;16.30;99.90
12307;DHT22;6216;51.146;7.008;2022-10-04T09:53:53;16.20;99.90
12307;DHT22;6216;51.146;7.008;2022-10-04T09:56:46;16.30;99.90
12307;DHT22;6216;51.146;7.008;2022-10-04T09:59:52;16.40;99.90
12307;DHT22;6216;51.146;7.008;2022-10-04T10:02:52;16.50;99.90
12307;DHT22;6216;51.146;7.008;2022-10-04T10:05:38;16.80;99.90
12307;DHT22;6216;51.146;7.008;2022-10-04T10:08:15;16.90;99.90
12307;DHT22;6216;51.146;7.008;2022-10-04T10:10:57;17.10;99.90
12307;DHT22;6216;51.146;7.008;2022-10-04T10:14:12;17.20;99.90
12307;DHT22;6216;51.146;7.008;2022-10-04T10:16:52;17.30;99.90
12307;DHT22;6216;51.146;7.008;2022-10-04T10:19:47;17.50;99.90
12307;DHT22;6216;51.146;7.008;2022-10-04T10:22:54;17.70;99.90
12307;DHT22;6216;51.146;7.008;2022-10-04T10:25:39;18.00;99.90
12307;DHT22;6216;51.146;7.008;2022-10-04T10:31:26;18.40;99.90
12307;DHT22;6216;51.146;7.008;2022-10-04T10:34:18;18.60;99.90
12307;DHT22;6216;51.146;7.008;2022-10-04T10:37:05;18.70;99.90
12307;DHT22;6216;51.146;7.008;2022-10-04T10:40:06;18.90;99.90
12307;DHT22;6216;51.146;7.008;2022-10-04T10:45:53;18.80;99.90
12307;DHT22;6216;51.146;7.008;2022-10-04T10:48:40;18.90;99.90
12307;DHT22;6216;51.146;7.008;2022-10-04T10:51:15;19.00;99.90
12307;DHT22;6216;51.146;7.008;2022-10-04T10:54:16;19.10;99.90
12307;DHT22;6216;51.146;7.008;2022-10-04T10:56:59;19.10;99.90
12307;DHT22;6216;51.146;7.008;2022-10-04T11:00:11;19.40;99.90
12307;DHT22;6216;51.146;7.008;2022-10-04T11:06:14;20.00;99.90
12307;DHT22;6216;51.146;7.008;2022-10-04T11:09:11;20.20;99.90
12307;DHT22;6216;51.146;7.008;2022-10-04T11:12:17;20.20;99.90
12307;DHT22;6216;51.146;7.008;2022-10-04T11:15:46;20.30;99.90
12307;DHT22;6216;51.146;7.008;2022-10-04T11:25:11;25.00;96.20
12307;DHT22;6216;51.146;7.008;2022-10-04T11:27:48;27.60;90.50
12307;DHT22;6216;51.146;7.008;2022-10-04T11:30:25;29.10;85.40
12307;DHT22;6216;51.146;7.008;2022-10-04T11:33:28;30.80;84.10
12307;DHT22;6216;51.146;7.008;2022-10-04T11:36:24;32.40;76.90
12307;DHT22;6216;51.146;7.008;2022-10-04T11:39:06;33.50;70.10
12307;DHT22;6216;51.146;7.008;2022-10-04T11:41:48;34.10;65.20
12307;DHT22;6216;51.146;7.008;2022-10-04T11:47:36;35.80;58.00
12307;DHT22;6216;51.146;7.008;2022-10-04T11:53:07;37.00;52.70
12307;DHT22;6216;51.146;7.008;2022-10-04T11:56:06;38.10;52.60
12307;DHT22;6216;51.146;7.008;2022-10-04T12:01:53;40.30;47.80
12307;DHT22;6216;51.146;7.008;2022-10-04T12:04:51;40.90;45.50
12307;DHT22;6216;51.146;7.008;2022-10-04T12:07:41;40.90;43.90
12307;DHT22;6216;51.146;7.008;2022-10-04T12:10:23;41.60;42.40
12307;DHT22;6216;51.146;7.008;2022-10-04T12:13:17;42.40;40.40
12307;DHT22;6216;51.146;7.008;2022-10-04T12:16:27;43.30;39.30
12307;DHT22;6216;51.146;7.008;2022-10-04T12:19:22;44.10;37.40
12307;DHT22;6216;51.146;7.008;2022-10-04T12:22:43;44.20;36.40
12307;DHT22;6216;51.146;7.008;2022-10-04T12:25:31;44.70;35.50
12307;DHT22;6216;51.146;7.008;2022-10-04T12:28:20;44.80;33.20
12307;DHT22;6216;51.146;7.008;2022-10-04T12:31:09;43.30;33.30
12307;DHT22;6216;51.146;7.008;2022-10-04T12:33:43;43.50;32.80
12307;DHT22;6216;51.146;7.008;2022-10-04T12:36:26;43.50;33.20
12307;DHT22;6216;51.146;7.008;2022-10-04T12:39:07;43.10;33.20
12307;DHT22;6216;51.146;7.008;2022-10-04T12:41:48;41.90;32.80
12307;DHT22;6216;51.146;7.008;2022-10-04T12:44:29;42.60;32.90
12307;DHT22;6216;51.146;7.008;2022-10-04T12:50:27;42.50;32.70
12307;DHT22;6216;51.146;7.008;2022-10-04T12:53:05;42.40;32.50
12307;DHT22;6216;51.146;7.008;2022-10-04T12:55:55;43.00;32.70
12307;DHT22;6216;51.146;7.008;2022-10-04T12:58:32;43.50;31.30
12307;DHT22;6216;51.146;7.008;2022-10-04T13:01:14;43.80;30.60
12307;DHT22;6216;51.146;7.008;2022-10-04T13:04:04;44.30;30.70
12307;DHT22;6216;51.146;7.008;2022-10-04T13:06:46;43.60;30.40
12307;DHT22;6216;51.146;7.008;2022-10-04T13:09:23;43.70;31.20
12307;DHT22;6216;51.146;7.008;2022-10-04T13:12:02;44.10;30.70
12307;DHT22;6216;51.146;7.008;2022-10-04T13:15:02;43.80;30.40
12307;DHT22;6216;51.146;7.008;2022-10-04T13:17:40;44.30;30.40
12307;DHT22;6216;51.146;7.008;2022-10-04T13:20:29;44.90;30.00
12307;DHT22;6216;51.146;7.008;2022-10-04T13:23:04;44.10;29.50
12307;DHT22;6216;51.146;7.008;2022-10-04T13:25:52;44.10;29.50
12307;DHT22;6216;51.146;7.008;2022-10-04T13:28:35;43.90;29.80
12307;DHT22;6216;51.146;7.008;2022-10-04T13:31:08;43.60;29.70
12307;DHT22;6216;51.146;7.008;2022-10-04T13:33:45;43.70;29.60
12307;DHT22;6216;51.146;7.008;2022-10-04T13:36:20;44.10;29.20
12307;DHT22;6216;51.146;7.008;2022-10-04T13:42:03;44.40;28.70
12307;DHT22;6216;51.146;7.008;2022-10-04T13:44:50;44.00;28.30
12307;DHT22;6216;51.146;7.008;2022-10-04T13:47:45;44.20;28.70
12307;DHT22;6216;51.146;7.008;2022-10-04T13:50:32;44.40;28.70
12307;DHT22;6216;51.146;7.008;2022-10-04T13:53:11;44.80;28.20
12307;DHT22;6216;51.146;7.008;2022-10-04T13:56:05;44.50;27.70
12307;DHT22;6216;51.146;7.008;2022-10-04T13:59:02;44.20;28.20
12307;DHT22;6216;51.146;7.008;2022-10-04T14:02:05;44.00;28.50
12307;DHT22;6216;51.146;7.008;2022-10-04T14:08:04;44.10;28.20
12307;DHT22;6216;51.146;7.008;2022-10-04T14:11:06;44.40;28.30
12307;DHT22;6216;51.146;7.008;2022-10-04T14:14:08;43.70;28.00
12307;DHT22;6216;51.146;7.008;2022-10-04T14:20:33;42.60;28.60
12307;DHT22;6216;51.146;7.008;2022-10-04T14:23:26;42.40;28.70
12307;DHT22;6216;51.146;7.008;2022-10-04T14:26:23;42.10;28.90
12307;DHT22;6216;51.146;7.008;2022-10-04T14:32:38;42.30;28.80
12307;DHT22;6216;51.146;7.008;2022-10-04T14:35:15;42.40;28.80
12307;DHT22;6216;51.146;7.008;2022-10-04T14:41:21;42.50;28.80
12307;DHT22;6216;51.146;7.008;2022-10-04T14:47:11;41.90;29.40
12307;DHT22;6216;51.146;7.008;2022-10-04T14:50:05;41.90;28.90
12307;DHT22;6216;51.146;7.008;2022-10-04T14:52:43;41.70;29.60
12307;DHT22;6216;51.146;7.008;2022-10-04T14:55:28;41.60;29.40
12307;DHT22;6216;51.146;7.008;2022-10-04T14:58:11;40.90;29.60
12307;DHT22;6216;51.146;7.008;2022-10-04T15:01:10;39.30;30.00
12307;DHT22;6216;51.146;7.008;2022-10-04T15:03:49;38.20;31.30
12307;DHT22;6216;51.146;7.008;2022-10-04T15:06:35;37.00;32.60
12307;DHT22;6216;51.146;7.008;2022-10-04T15:09:39;35.60;34.00
12307;DHT22;6216;51.146;7.008;2022-10-04T15:12:43;34.20;35.60
12307;DHT22;6216;51.146;7.008;2022-10-04T15:15:49;32.50;37.10
12307;DHT22;6216;51.146;7.008;2022-10-04T15:18:30;31.20;39.40
12307;DHT22;6216;51.146;7.008;2022-10-04T15:21:01;30.20;41.00
12307;DHT22;6216;51.146;7.008;2022-10-04T15:23:36;29.50;42.70
12307;DHT22;6216;51.146;7.008;2022-10-04T15:26:48;28.90;44.00
12307;DHT22;6216;51.146;7.008;2022-10-04T15:29:23;28.40;45.50
12307;DHT22;6216;51.146;7.008;2022-10-04T15:32:02;27.90;46.80
12307;DHT22;6216;51.146;7.008;2022-10-04T15:34:39;27.30;48.00
12307;DHT22;6216;51.146;7.008;2022-10-04T15:37:20;26.80;49.50
12307;DHT22;6216;51.146;7.008;2022-10-04T15:40:21;26.60;50.80
12307;DHT22;6216;51.146;7.008;2022-10-04T15:49:15;25.80;54.50
12307;DHT22;6216;51.146;7.008;2022-10-04T15:55:18;25.50;56.90
12307;DHT22;6216;51.146;7.008;2022-10-04T15:58:21;25.30;57.90
12307;DHT22;6216;51.146;7.008;2022-10-04T16:01:19;25.00;59.00
12307;DHT22;6216;51.146;7.008;2022-10-04T16:04:15;24.90;60.30
12307;DHT22;6216;51.146;7.008;2022-10-04T16:06:53;24.80;61.60
12307;DHT22;6216;51.146;7.008;2022-10-04T16:09:34;24.50;64.00
12307;DHT22;6216;51.146;7.008;2022-10-04T16:12:19;24.30;64.80
12307;DHT22;6216;51.146;7.008;2022-10-04T16:14:56;24.10;65.70
12307;DHT22;6216;51.146;7.008;2022-10-04T16:17:52;24.00;67.00
12307;DHT22;6216;51.146;7.008;2022-10-04T16:20:53;23.80;68.30
12307;DHT22;6216;51.146;7.008;2022-10-04T16:23:28;23.70;69.00
12307;DHT22;6216;51.146;7.008;2022-10-04T16:25:57;23.60;70.70
12307;DHT22;6216;51.146;7.008;2022-10-04T16:28:47;23.50;72.00
12307;DHT22;6216;51.146;7.008;2022-10-04T16:31:26;23.30;73.20
12307;DHT22;6216;51.146;7.008;2022-10-04T16:37:12;23.20;75.90
12307;DHT22;6216;51.146;7.008;2022-10-04T16:39:50;23.10;77.10
12307;DHT22;6216;51.146;7.008;2022-10-04T16:42:46;23.00;78.80
12307;DHT22;6216;51.146;7.008;2022-10-04T16:45:40;22.90;80.10
12307;DHT22;6216;51.146;7.008;2022-10-04T16:48:22;22.70;81.70
12307;DHT22;6216;51.146;7.008;2022-10-04T16:53:56;22.50;85.80
12307;DHT22;6216;51.146;7.008;2022-10-04T16:56:27;22.30;88.60
12307;DHT22;6216;51.146;7.008;2022-10-04T16:59:00;22.20;90.00
12307;DHT22;6216;51.146;7.008;2022-10-04T17:01:54;22.10;91.10
12307;DHT22;6216;51.146;7.008;2022-10-04T17:04:51;22.00;92.10
12307;DHT22;6216;51.146;7.008;2022-10-04T17:07:32;21.80;93.50
12307;DHT22;6216;51.146;7.008;2022-10-04T17:10:15;21.70;94.50
12307;DHT22;6216;51.146;7.008;2022-10-04T17:12:53;21.60;95.10
12307;DHT22;6216;51.146;7.008;2022-10-04T17:15:43;21.50;96.10
12307;DHT22;6216;51.146;7.008;2022-10-04T17:18:19;21.40;97.00
12307;DHT22;6216;51.146;7.008;2022-10-04T17:20:57;21.30;98.20
12307;DHT22;6216;51.146;7.008;2022-10-04T17:23:50;21.20;99.10
12307;DHT22;6216;51.146;7.008;2022-10-04T17:26:34;21.00;99.90
12307;DHT22;6216;51.146;7.008;2022-10-04T17:29:27;20.90;99.90
12307;DHT22;6216;51.146;7.008;2022-10-04T17:32:08;20.80;99.90
12307;DHT22;6216;51.146;7.008;2022-10-04T17:35:01;20.70;99.90
12307;DHT22;6216;51.146;7.008;2022-10-04T17:37:42;20.60;99.90
12307;DHT22;6216;51.146;7.008;2022-10-04T17:40:34;20.60;99.90
12307;DHT22;6216;51.146;7.008;2022-10-04T17:43:12;20.50;99.90
12307;DHT22;6216;51.146;7.008;2022-10-04T17:45:55;20.40;99.90
12307;DHT22;6216;51.146;7.008;2022-10-04T17:48:28;20.30;99.90
12307;DHT22;6216;51.146;7.008;2022-10-04T17:51:32;20.20;99.90
12307;DHT22;6216;51.146;7.008;2022-10-04T17:54:23;20.10;99.90
12307;DHT22;6216;51.146;7.008;2022-10-04T17:57:20;20.10;99.90
12307;DHT22;6216;51.146;7.008;2022-10-04T17:59:55;20.00;99.90
12307;DHT22;6216;51.146;7.008;2022-10-04T18:02:32;19.90;99.90
12307;DHT22;6216;51.146;7.008;2022-10-04T18:05:14;19.80;99.90
12307;DHT22;6216;51.146;7.008;2022-10-04T18:07:48;19.70;99.90
12307;DHT22;6216;51.146;7.008;2022-10-04T18:10:24;19.60;99.90
12307;DHT22;6216;51.146;7.008;2022-10-04T18:12:57;19.40;99.90
12307;DHT22;6216;51.146;7.008;2022-10-04T18:15:30;19.30;99.90
12307;DHT22;6216;51.146;7.008;2022-10-04T18:18:14;19.10;99.90
12307;DHT22;6216;51.146;7.008;2022-10-04T18:21:01;19.00;99.90
12307;DHT22;6216;51.146;7.008;2022-10-04T18:23:34;18.90;99.90
12307;DHT22;6216;51.146;7.008;2022-10-04T18:26:08;18.90;99.90
12307;DHT22;6216;51.146;7.008;2022-10-04T18:28:38;18.80;99.90
12307;DHT22;6216;51.146;7.008;2022-10-04T18:31:19;18.70;99.90
12307;DHT22;6216;51.146;7.008;2022-10-04T18:33:50;18.70;99.90
12307;DHT22;6216;51.146;7.008;2022-10-04T18:36:20;18.60;99.90
12307;DHT22;6216;51.146;7.008;2022-10-04T18:39:17;18.60;99.90
12307;DHT22;6216;51.146;7.008;2022-10-04T18:41:54;18.50;99.90
12307;DHT22;6216;51.146;7.008;2022-10-04T18:44:28;18.40;99.90
12307;DHT22;6216;51.146;7.008;2022-10-04T18:46:58;18.40;99.90
12307;DHT22;6216;51.146;7.008;2022-10-04T18:49:29;18.40;99.90
12307;DHT22;6216;51.146;7.008;2022-10-04T18:52:11;18.40;99.90
12307;DHT22;6216;51.146;7.008;2022-10-04T18:54:46;18.40;99.90
12307;DHT22;6216;51.146;7.008;2022-10-04T18:57:25;18.30;99.90